Arnold AFB, Tennessee
Current Conditions -  °F | °C
As of 9:55 PM on Tuesday 27 Jan 2015 (Local Time) from KTHA Reporting Station
NA  
Wind Chill: 28°   Ceiling: NA
Heat Index: 34°   Visibility: 10mi
Dew Point: 27°   Wind: 7mph
Humidity: 75%   Direction: 20°NNE
Pressure: 30.18"   Gusts: NA
Location:  35.36°N, 86.21°W
Report Text: KTHA 280355Z AUTO 02006KT 10SM 01/M03 A3018 RMK
Loading
Personal Weather Stations






























Interactive Weather Map New forecast layout! Learn more

10-Day Weather Forecast

Advertisements
Track Severe Weather on mobile